HARTSFIELD - JACKSON ATLANTA INTL

KATL (ATL)
Atlanta, Georgia
Towered

Vatsim Metar:
KATL 190852Z 00000KT 10SM FEW120 FEW200 SCT250 24/22 A3004 RMK AO2 SLP160 T02390217 55001

No ATC Online

Traffic

Inbound:
Ident
Type
Name
ETA
Phase
ARA0017
B738/L
Jeramie Newman
09:41 Z
Descent
DAL44MT
H/B77L/L
Mike Teague KPDX
12:28 Z
Climb

Outbound:
Ident
Type
Name
Destination
Phase